Portada
METAR-TAF:

METAR-TAF

Aeropuertos :

Cascaes, Portugal

latitud: 38-43-32N, longitud: 009-21-19W, altitud: 99 m

Observación

El informe se hizo hace 18 minutos, a las 16:30 UTC
Viento 16 kt del norte-noroeste
Temperatura 29°C
Humedad 25%
Presión 1018 hPa
Visibilidad 10 km o más
sin nubes por debajo de 1500 m y sin presencia de cumulonimbus.

METAR: LPCS 261630Z 33016KT CAVOK 29/07 Q1018

Hora: 17:48 (16:48 UTC)

Pronóstico

El informe se hizo hace 2 horas y 48 minutos, a las 14:00 UTC
Pronóstico válido del 26 a las 15 UTC al 26 a las 24 UTC
Viento 15 kt del norte-noroeste
Visibilidad 10 km o más
sin nubes por debajo de 1500 m y sin presencia de cumulonimbus.
Evolucionando progresivamente
del 26 a las 19 UTC al 26 a las 22 UTC
Viento 8 kt del norte

TAF: LPCS 261400Z 2615/2624 34015KT CAVOK BECMG 2619/2622 01008KT

Observaciones y pronósticos meteorológicos de más de 4000 aeropuertos (mensajes METAR y TAF).

Los puntos amarillos y rojos representan las estaciones disponibles.

Ponga el ratón en el punto deseado para ver el nombre de la estación.

Haga clic para ver las observaciones y los pronósticos meteorológicos.

Para cambiar el mapa : haga clic en los botones verdes con una cruz de color negro para hacer un zoom, en el botón verde con un guión para alejar o en las flechas verdes para mapas adyacentes.


METAR-TAF: